Time;durP1;ratioP1;P1;durP2;ratioP2;P2;SDS_P1;SDS_P2;PMS_P1;PMS_P2;Temp;Humidity;BMP_temperature;BMP_pressure;BME280_temperature;BME280_humidity;BME280_pressure;Samples;Min_cycle;Max_cycle;Signal;HPM_P1;HPM_P2
2021/07/07 00:00:58;;;;;;;10.52;7.25;;;;;;;18.76;100.00;97284.31;4991629;28;20018;-74
2021/07/07 00:03:26;;;;;;;10.77;6.75;;;;;;;18.80;100.00;97274.84;4974318;28;20033;-74
2021/07/07 00:05:52;;;;;;;10.18;7.10;;;;;;;18.84;99.53;97283.53;4990201;28;20125;-74
2021/07/07 00:08:18;;;;;;;9.73;6.68;;;;;;;18.82;100.00;97288.25;4990303;28;20105;-74
2021/07/07 00:10:43;;;;;;;8.05;6.50;;;;;;;18.76;100.00;97283.44;4991400;28;20026;-74
2021/07/07 00:13:09;;;;;;;10.80;6.50;;;;;;;18.73;100.00;97279.19;4974056;28;20402;-74
2021/07/07 00:15:35;;;;;;;9.20;6.63;;;;;;;18.70;100.00;97276.75;5005060;28;20421;-74
2021/07/07 00:18:03;;;;;;;7.70;6.20;;;;;;;18.75;98.13;97269.03;4996969;28;20033;-74
2021/07/07 00:21:02;;;;;;;11.70;6.93;;;;;;;18.78;97.51;97276.88;4980913;28;20099;-74
2021/07/07 00:23:23;;;;;;;8.32;6.22;;;;;;;18.66;98.29;97275.38;4998876;28;20112;-74
2021/07/07 00:25:48;;;;;;;11.18;6.47;;;;;;;18.68;97.53;97270.66;4980761;28;20568;-74
2021/07/07 00:28:14;;;;;;;9.60;6.47;;;;;;;18.67;96.94;97276.22;4980780;28;20108;-74
2021/07/07 00:30:40;;;;;;;7.65;6.30;;;;;;;18.56;98.07;97279.97;5014388;28;20397;-74
2021/07/07 00:33:05;;;;;;;9.63;6.32;;;;;;;18.57;99.23;97281.69;4997083;28;20037;-74
2021/07/07 00:35:31;;;;;;;10.27;6.80;;;;;;;18.56;100.00;97281.84;4980591;28;20036;-74
2021/07/07 00:37:57;;;;;;;9.88;7.05;;;;;;;18.51;100.00;97273.31;4996665;28;20438;-74
2021/07/07 00:40:23;;;;;;;8.60;6.28;;;;;;;18.51;100.00;97281.44;4996843;28;20029;-74
2021/07/07 00:42:48;;;;;;;11.40;6.68;;;;;;;18.51;100.00;97286.88;4980201;28;20034;-74
2021/07/07 00:45:15;;;;;;;7.28;6.13;;;;;;;18.44;100.00;97292.00;4996765;28;20112;-74
2021/07/07 00:47:41;;;;;;;11.10;6.38;;;;;;;18.45;100.00;97296.41;4996706;28;20476;-73
2021/07/07 00:50:08;;;;;;;10.27;6.22;;;;;;;18.46;100.00;97287.28;5014053;28;20088;-74
2021/07/07 00:52:33;;;;;;;7.45;6.35;;;;;;;18.46;100.00;97297.28;4996557;28;20029;-74
2021/07/07 00:55:03;;;;;;;8.80;6.80;;;;;;;18.42;100.00;97302.13;4980003;28;20025;-74
2021/07/07 00:57:34;;;;;;;11.70;7.20;;;;;;;18.31;100.00;97288.75;4996357;28;20033;-74
2021/07/07 00:59:59;;;;;;;9.40;7.15;;;;;;;18.32;100.00;97298.59;4996784;28;20033;-74
2021/07/07 01:02:27;;;;;;;11.30;6.68;;;;;;;18.25;100.00;97297.47;4996410;28;20037;-74
2021/07/07 01:04:53;;;;;;;12.45;7.32;;;;;;;18.16;100.00;97298.38;4980033;28;20038;-74
2021/07/07 01:07:18;;;;;;;9.18;6.80;;;;;;;18.18;100.00;97302.63;4996381;28;20022;-74
2021/07/07 01:09:44;;;;;;;10.55;6.78;;;;;;;18.18;100.00;97301.81;4979910;28;20541;-75
2021/07/07 01:12:10;;;;;;;13.63;6.72;;;;;;;18.11;100.00;97293.41;4996219;28;20034;-74
2021/07/07 01:14:35;;;;;;;10.45;7.15;;;;;;;18.05;100.00;97298.56;4996079;28;20489;-74
2021/07/07 01:17:02;;;;;;;9.00;6.75;;;;;;;17.99;100.00;97291.03;4980113;28;20418;-76
2021/07/07 01:19:27;;;;;;;9.18;6.85;;;;;;;18.07;100.00;97293.84;4979802;28;20064;-74
2021/07/07 01:21:53;;;;;;;9.07;7.10;;;;;;;17.97;100.00;97299.28;4979700;28;20453;-75
2021/07/07 01:24:20;;;;;;;9.20;7.25;;;;;;;17.94;100.00;97294.16;4979784;28;20037;-74
2021/07/07 01:26:46;;;;;;;11.98;7.30;;;;;;;17.91;100.00;97288.19;4995491;28;20037;-74
2021/07/07 01:29:14;;;;;;;8.75;6.70;;;;;;;17.83;100.00;97287.09;4979912;28;20030;-75
2021/07/07 01:31:41;;;;;;;26.15;7.93;;;;;;;17.83;100.00;97297.91;4979495;28;20030;-74
2021/07/07 01:34:07;;;;;;;19.80;7.40;;;;;;;17.81;100.00;97278.25;4979301;28;20133;-74
2021/07/07 01:36:34;;;;;;;8.23;6.80;;;;;;;17.87;100.00;97298.47;4979432;28;20108;-74
2021/07/07 01:38:59;;;;;;;16.10;7.03;;;;;;;17.83;100.00;97303.31;4979315;28;20398;-74
2021/07/07 01:41:44;;;;;;;9.68;7.15;;;;;;;17.85;100.00;97300.47;4979461;28;20030;-74
2021/07/07 01:44:09;;;;;;;12.10;7.55;;;;;;;17.81;100.00;97278.25;4995394;28;20022;-74
2021/07/07 01:46:35;;;;;;;9.70;7.20;;;;;;;17.89;100.00;97310.00;4979416;28;20438;-74
2021/07/07 01:49:00;;;;;;;9.40;7.63;;;;;;;17.90;100.00;97308.16;4995239;28;20072;-74
2021/07/07 01:51:26;;;;;;;9.02;7.30;;;;;;;17.87;100.00;97298.47;4979333;28;20072;-74
2021/07/07 01:53:51;;;;;;;11.65;7.28;;;;;;;17.78;100.00;97305.59;4995427;28;20030;-75
2021/07/07 01:56:17;;;;;;;11.23;7.32;;;;;;;17.74;100.00;97298.78;4979083;28;20036;-74
2021/07/07 01:58:43;;;;;;;16.60;7.43;;;;;;;17.77;100.00;97313.88;4995250;28;20040;-74
2021/07/07 02:01:09;;;;;;;15.43;7.32;;;;;;;17.80;100.00;97309.03;4978865;28;20144;-74
2021/07/07 02:03:35;;;;;;;19.83;8.38;;;;;;;17.71;100.00;97303.63;5012773;28;20484;-75
2021/07/07 02:06:01;;;;;;;27.83;7.93;;;;;;;17.69;100.00;97301.06;4995075;28;20033;-74
2021/07/07 02:08:26;;;;;;;31.15;8.15;;;;;;;17.61;100.00;97322.59;4978806;28;20034;-74
2021/07/07 02:10:52;;;;;;;32.83;9.23;;;;;;;17.53;100.00;97317.00;4995245;28;20037;-74
2021/07/07 02:13:18;;;;;;;37.58;9.65;;;;;;;17.45;100.00;97314.16;4995309;28;20100;-74
2021/07/07 02:15:44;;;;;;;30.73;8.85;;;;;;;17.43;100.00;97309.88;4978630;28;20503;-74
2021/07/07 02:18:10;;;;;;;26.77;8.50;;;;;;;17.45;100.00;97324.13;5012379;28;20040;-74
2021/07/07 02:20:39;;;;;;;19.58;8.27;;;;;;;17.42;100.00;97319.84;4978575;28;20030;-74
2021/07/07 02:23:05;;;;;;;23.35;8.15;;;;;;;17.39;100.00;97322.84;4978637;28;20034;-75
2021/07/07 02:25:32;;;;;;;24.33;8.52;;;;;;;17.34;100.00;97330.53;4978587;28;20040;-74
2021/07/07 02:27:58;;;;;;;16.23;8.30;;;;;;;17.35;100.00;97334.94;4994554;28;20038;-74
2021/07/07 02:30:27;;;;;;;16.60;7.90;;;;;;;17.30;100.00;97329.09;4978564;28;20029;-74
2021/07/07 02:32:53;;;;;;;22.63;8.25;;;;;;;17.33;100.00;97337.78;4995145;28;20065;-74
2021/07/07 02:35:29;;;;;;;9.05;7.30;;;;;;;17.39;100.00;97338.19;4994769;28;20477;-75
2021/07/07 02:37:55;;;;;;;14.35;7.80;;;;;;;17.37;100.00;97338.38;4977519;28;20022;-74
2021/07/07 02:40:27;;;;;;;10.52;7.57;;;;;;;17.29;100.00;97338.19;4978480;28;20068;-74
2021/07/07 02:42:53;;;;;;;17.65;7.93;;;;;;;17.35;100.00;97343.03;4994641;28;20026;-74
2021/07/07 02:45:20;;;;;;;16.10;8.05;;;;;;;17.39;100.00;97340.91;4994444;28;20018;-74
2021/07/07 02:47:46;;;;;;;14.25;7.80;;;;;;;17.30;100.00;97334.50;4994651;28;20053;-74
2021/07/07 02:50:14;;;;;;;11.73;8.20;;;;;;;17.19;100.00;97331.94;4978059;28;20032;-74
2021/07/07 02:52:41;;;;;;;12.30;8.05;;;;;;;17.28;100.00;97334.66;4978032;28;20029;-74
2021/07/07 02:55:11;;;;;;;9.90;8.23;;;;;;;17.29;100.00;97335.50;4993880;28;20052;-74
2021/07/07 03:00:22;;;;;;;16.98;9.02;;;;;;;17.31;100.00;97350.59;4996827;28;20145;-74
2021/07/07 03:02:48;;;;;;;17.75;7.90;;;;;;;17.39;100.00;97344.47;4994429;28;20501;-74
2021/07/07 03:05:13;;;;;;;15.15;8.15;;;;;;;17.38;100.00;97350.03;4977970;28;20029;-75
2021/07/07 03:07:39;;;;;;;9.57;8.00;;;;;;;17.29;100.00;97341.75;4993965;28;20562;-75
2021/07/07 03:10:09;;;;;;;12.30;8.43;;;;;;;17.33;100.00;97356.72;4993925;28;20536;-75
2021/07/07 03:12:35;;;;;;;18.30;9.52;;;;;;;17.23;100.00;97331.50;4993896;28;20029;-75
2021/07/07 03:15:01;;;;;;;10.43;8.57;;;;;;;17.31;100.00;97355.16;4977685;28;20494;-75
2021/07/07 03:17:26;;;;;;;15.63;9.00;;;;;;;17.26;100.00;97352.84;4977681;28;20493;-75
2021/07/07 03:19:52;;;;;;;12.98;8.63;;;;;;;17.22;100.00;97356.00;4994203;28;20116;-75
2021/07/07 03:22:18;;;;;;;12.48;8.50;;;;;;;17.26;100.00;97362.81;4993696;28;20038;-75
2021/07/07 03:24:44;;;;;;;12.13;8.60;;;;;;;17.30;100.00;97358.84;4994292;28;20025;-76
2021/07/07 03:27:10;;;;;;;13.57;8.93;;;;;;;17.35;100.00;97362.81;4977488;28;20087;-75
2021/07/07 03:29:35;;;;;;;12.63;8.32;;;;;;;17.41;100.00;97361.41;4977966;28;20480;-75
2021/07/07 03:32:01;;;;;;;11.57;8.10;;;;;;;17.53;100.00;97360.28;4993961;28;20037;-75
2021/07/07 03:34:27;;;;;;;16.83;8.68;;;;;;;17.53;100.00;97364.84;4993583;28;20470;-75
2021/07/07 03:36:55;;;;;;;19.67;8.38;;;;;;;17.56;100.00;97365.44;4993634;28;20085;-75
2021/07/07 03:39:20;;;;;;;13.05;8.30;;;;;;;17.63;100.00;97371.13;4977670;28;20034;-75
2021/07/07 03:41:46;;;;;;;30.88;9.48;;;;;;;17.74;100.00;97362.88;4978009;28;20049;-75
2021/07/07 03:44:11;;;;;;;22.17;9.93;;;;;;;17.85;100.00;97366.25;4977731;28;20030;-76
2021/07/07 03:46:37;;;;;;;25.55;11.48;;;;;;;17.91;100.00;97370.25;4993978;28;20079;-76
2021/07/07 03:49:03;;;;;;;21.85;12.93;;;;;;;17.95;100.00;97371.66;4995002;28;20048;-75
2021/07/07 03:51:28;;;;;;;24.23;11.07;;;;;;;18.04;100.00;97378.06;4997545;28;20068;-76
2021/07/07 03:53:54;;;;;;;36.58;11.07;;;;;;;18.16;100.00;97379.59;4997907;28;20022;-74
2021/07/07 03:56:20;;;;;;;19.02;10.00;;;;;;;18.19;100.00;97377.47;4981171;28;20034;-74
2021/07/07 03:58:45;;;;;;;26.23;9.85;;;;;;;18.21;100.00;97369.22;4981273;28;20481;-74
2021/07/07 04:01:12;;;;;;;16.17;9.68;;;;;;;18.36;100.00;97382.09;4981092;28;20034;-75
2021/07/07 04:03:38;;;;;;;27.90;12.15;;;;;;;18.33;100.00;97393.22;4981405;28;20504;-74
2021/07/07 04:06:04;;;;;;;24.23;11.98;;;;;;;18.36;100.00;97381.28;4981023;28;20176;-75
2021/07/07 04:08:30;;;;;;;27.92;12.07;;;;;;;18.39;100.00;97380.97;4980816;28;20064;-75
2021/07/07 04:10:55;;;;;;;19.35;12.32;;;;;;;18.37;100.00;97389.25;4981073;28;20033;-74
2021/07/07 04:13:21;;;;;;;27.55;13.52;;;;;;;18.33;100.00;97389.69;4980816;28;20041;-74
2021/07/07 04:15:46;;;;;;;29.23;15.77;;;;;;;18.43;100.00;97387.78;4980769;28;20062;-74
2021/07/07 04:18:13;;;;;;;27.83;17.70;;;;;;;18.29;100.00;97380.16;4993332;28;20417;-74
2021/07/07 04:20:38;;;;;;;24.75;16.88;;;;;;;18.36;100.00;97392.09;5011863;28;20469;-79
2021/07/07 04:23:04;;;;;;;33.65;17.23;;;;;;;18.45;100.00;97379.53;4978739;28;20083;-78
2021/07/07 04:25:29;;;;;;;34.58;16.90;;;;;;;18.55;99.66;97386.63;4978679;28;20036;-79
2021/07/07 04:27:55;;;;;;;36.03;18.45;;;;;;;18.73;99.13;97395.72;4995191;28;20034;-74
2021/07/07 04:30:20;;;;;;;29.88;18.05;;;;;;;18.77;97.33;97385.41;4980409;28;20044;-74
2021/07/07 04:32:47;;;;;;;36.80;16.13;;;;;;;19.03;97.15;97401.84;4996874;28;20050;-80
2021/07/07 04:35:16;;;;;;;37.63;20.55;;;;;;;19.15;96.22;97392.50;4980944;28;20037;-73
2021/07/07 04:37:42;;;;;;;34.17;16.23;;;;;;;19.35;95.02;97402.19;4980757;28;20038;-75
2021/07/07 04:40:09;;;;;;;30.40;15.75;;;;;;;19.48;93.46;97392.72;4996896;28;20029;-75
2021/07/07 04:42:35;;;;;;;26.15;14.88;;;;;;;19.60;91.78;97400.63;4980418;28;20034;-75
2021/07/07 04:45:00;;;;;;;21.45;13.05;;;;;;;19.67;91.21;97405.31;4977508;28;20532;-75
2021/07/07 04:47:26;;;;;;;22.33;13.00;;;;;;;19.80;90.87;97402.19;4980334;28;20057;-75
2021/07/07 04:49:52;;;;;;;37.08;13.80;;;;;;;19.95;90.67;97416.94;4980249;28;20084;-75
2021/07/07 04:52:17;;;;;;;27.92;13.05;;;;;;;20.06;89.67;97410.41;4980242;28;20057;-75
2021/07/07 04:54:43;;;;;;;20.10;12.30;;;;;;;20.66;86.50;97405.94;4996354;28;20029;-75
2021/07/07 04:57:08;;;;;;;25.73;11.73;;;;;;;22.46;77.25;97410.66;4980015;28;20034;-75
2021/07/07 04:59:35;;;;;;;27.02;11.15;;;;;;;24.21;68.95;97416.59;4996157;28;20414;-75
2021/07/07 05:02:00;;;;;;;26.55;10.68;;;;;;;25.43;61.93;97416.22;4979225;28;20033;-75
2021/07/07 05:04:26;;;;;;;17.23;10.65;;;;;;;26.76;56.76;97432.03;4979942;28;20034;-75
2021/07/07 05:06:51;;;;;;;20.23;11.02;;;;;;;28.08;52.18;97431.75;4979757;28;20053;-76
2021/07/07 05:09:17;;;;;;;15.60;9.95;;;;;;;29.61;47.53;97439.81;4996408;28;20033;-76
2021/07/07 05:11:42;;;;;;;19.77;9.85;;;;;;;31.02;44.40;97440.28;4979850;28;20113;-74
2021/07/07 05:14:08;;;;;;;19.85;9.90;;;;;;;31.92;41.52;97449.75;4979730;28;20437;-75
2021/07/07 05:16:34;;;;;;;23.00;9.93;;;;;;;31.47;42.35;97448.34;4979497;28;20462;-77
2021/07/07 05:18:59;;;;;;;28.50;9.95;;;;;;;32.69;39.44;97448.94;4979675;28;20132;-75
2021/07/07 05:21:25;;;;;;;17.48;9.80;;;;;;;33.17;38.37;97442.38;4979713;28;20025;-74
2021/07/07 05:23:50;;;;;;;14.38;8.38;;;;;;;33.99;36.65;97454.28;4995835;28;20091;-75
2021/07/07 05:26:16;;;;;;;12.95;9.02;;;;;;;34.15;36.03;97442.41;4979533;28;20040;-74
2021/07/07 05:28:42;;;;;;;19.67;8.73;;;;;;;34.63;35.54;97453.13;4995662;28;20382;-75
2021/07/07 05:31:08;;;;;;;13.70;8.75;;;;;;;34.59;35.24;97455.56;4995862;28;20033;-74
2021/07/07 05:33:35;;;;;;;14.20;8.45;;;;;;;35.58;33.36;97455.88;4995303;28;20048;-76
2021/07/07 05:36:04;;;;;;;14.13;8.95;;;;;;;36.41;32.50;97459.25;4995907;28;20032;-77
2021/07/07 05:38:30;;;;;;;22.13;9.43;;;;;;;36.91;31.62;97461.75;4979495;28;20029;-75
2021/07/07 05:40:56;;;;;;;14.27;8.43;;;;;;;36.29;32.20;97452.97;4979013;28;20033;-74
2021/07/07 05:43:22;;;;;;;17.65;8.38;;;;;;;37.04;31.24;97468.03;4980180;28;20406;-74
2021/07/07 05:45:48;;;;;;;23.05;9.73;;;;;;;37.55;30.42;97458.97;4979250;28;20042;-74
2021/07/07 05:48:14;;;;;;;15.20;9.00;;;;;;;37.60;29.99;97461.78;4979146;28;20029;-75
2021/07/07 05:50:40;;;;;;;20.25;7.75;;;;;;;37.97;29.42;97473.78;4979079;28;20168;-76
2021/07/07 05:53:05;;;;;;;13.68;7.82;;;;;;;38.09;29.39;97462.38;4979073;28;20113;-76
2021/07/07 05:55:31;;;;;;;14.38;7.95;;;;;;;37.12;30.31;97465.59;4995593;28;20117;-76
2021/07/07 05:57:56;;;;;;;12.98;7.97;;;;;;;36.10;31.99;97482.28;4979012;28;20034;-76
2021/07/07 06:00:24;;;;;;;12.43;8.07;;;;;;;37.55;30.16;97475.75;4979083;28;20048;-76
2021/07/07 06:02:51;;;;;;;19.75;9.70;;;;;;;37.70;30.16;97477.78;4978726;28;20068;-76
2021/07/07 06:05:17;;;;;;;19.30;8.73;;;;;;;37.14;30.67;97484.84;4979244;28;20060;-76
2021/07/07 06:07:44;;;;;;;13.27;8.38;;;;;;;36.34;31.44;97492.06;4994993;28;20458;-76
2021/07/07 06:10:12;;;;;;;13.35;8.13;;;;;;;36.66;31.62;97494.13;4978719;28;20030;-75
2021/07/07 06:12:37;;;;;;;14.82;8.68;;;;;;;37.11;30.71;97491.81;4993937;28;20029;-76
2021/07/07 06:15:04;;;;;;;14.65;8.50;;;;;;;36.79;31.28;97483.38;4994911;28;20508;-76
2021/07/07 06:17:30;;;;;;;15.15;7.65;;;;;;;37.44;30.59;97485.97;4978509;28;20053;-76
2021/07/07 06:19:55;;;;;;;11.93;8.38;;;;;;;38.91;28.40;97483.97;4978581;28;20034;-75
2021/07/07 06:22:21;;;;;;;19.67;7.82;;;;;;;39.27;28.51;97493.28;4978959;28;20025;-76
2021/07/07 06:24:47;;;;;;;24.48;7.95;;;;;;;39.89;27.28;97485.41;4978371;28;20044;-76
2021/07/07 06:27:12;;;;;;;13.48;8.80;;;;;;;40.28;26.72;97498.75;4978582;28;20099;-76
2021/07/07 06:29:38;;;;;;;19.05;7.82;;;;;;;40.91;25.57;97494.28;4978715;28;20022;-76
2021/07/07 06:32:03;;;;;;;19.48;9.10;;;;;;;40.18;26.34;97482.00;4978299;28;20033;-76
2021/07/07 06:34:29;;;;;;;72.40;11.30;;;;;;;40.41;25.95;97486.94;4978741;28;20379;-75
2021/07/07 06:36:55;;;;;;;17.15;12.23;;;;;;;40.13;26.65;97479.19;4978002;28;20061;-75
2021/07/07 06:39:20;;;;;;;28.40;12.27;;;;;;;39.23;27.21;97492.13;4994403;28;20034;-74
2021/07/07 06:42:04;;;;;;;24.52;13.52;;;;;;;37.77;28.73;97487.63;4994502;28;20498;-75
2021/07/07 06:44:30;;;;;;;17.73;11.43;;;;;;;38.39;28.77;97482.09;4978241;28;20041;-74
2021/07/07 06:46:56;;;;;;;24.50;10.45;;;;;;;39.12;28.74;97490.44;4994309;28;20028;-75
2021/07/07 06:49:22;;;;;;;14.88;8.95;;;;;;;39.99;27.25;97493.75;4994524;28;20030;-75
2021/07/07 06:51:49;;;;;;;14.50;8.10;;;;;;;40.82;26.32;97481.97;4977941;28;20456;-75
2021/07/07 06:54:14;;;;;;;15.65;7.65;;;;;;;41.81;25.04;97486.31;4994671;28;20470;-75
2021/07/07 06:56:40;;;;;;;10.13;6.50;;;;;;;41.60;24.96;97494.06;5011708;28;20033;-75
2021/07/07 06:59:06;;;;;;;11.77;8.05;;;;;;;40.90;25.25;97489.78;4994243;28;20426;-76
2021/07/07 07:01:31;;;;;;;17.98;7.28;;;;;;;40.82;25.61;97498.81;4994350;28;20474;-76
2021/07/07 07:03:57;;;;;;;8.45;5.90;;;;;;;40.33;26.09;97495.94;4977769;28;20446;-75
2021/07/07 07:06:22;;;;;;;8.57;5.90;;;;;;;41.25;24.71;97491.53;4977737;28;20018;-75
2021/07/07 07:08:48;;;;;;;12.27;6.03;;;;;;;41.30;24.90;97494.28;4977652;28;20029;-76
2021/07/07 07:11:17;;;;;;;10.93;6.45;;;;;;;41.97;24.33;97499.06;4977842;28;20030;-75
2021/07/07 07:13:44;;;;;;;12.40;5.93;;;;;;;41.33;24.76;97504.94;4978086;28;20081;-74
2021/07/07 07:16:10;;;;;;;9.80;5.50;;;;;;;40.62;26.15;97496.94;4977245;28;20108;-74
2021/07/07 07:18:35;;;;;;;12.55;5.30;;;;;;;40.57;26.33;97494.19;4977730;28;20534;-74
2021/07/07 07:21:01;;;;;;;8.65;5.70;;;;;;;40.57;25.34;97492.22;4977492;28;20030;-74
2021/07/07 07:23:26;;;;;;;17.05;6.50;;;;;;;40.95;25.57;97504.66;4993224;28;20037;-74
2021/07/07 07:25:52;;;;;;;9.50;6.32;;;;;;;38.99;27.00;97495.47;4977408;28;20073;-74
2021/07/07 07:28:18;;;;;;;10.73;6.40;;;;;;;39.01;27.58;97490.41;4993627;28;20022;-74
2021/07/07 07:30:45;;;;;;;15.13;6.90;;;;;;;39.86;26.35;97508.38;4977270;28;20037;-74
2021/07/07 07:33:11;;;;;;;22.10;7.30;;;;;;;40.69;26.62;97513.47;4977387;28;20109;-74
2021/07/07 07:35:36;;;;;;;8.48;6.18;;;;;;;40.39;26.32;97503.22;4993908;28;20176;-74
2021/07/07 07:38:03;;;;;;;11.73;6.35;;;;;;;40.50;26.28;97496.41;5010909;28;20025;-74
2021/07/07 07:40:48;;;;;;;7.93;6.18;;;;;;;40.31;26.13;97503.78;4977606;28;20076;-74
2021/07/07 07:43:19;;;;;;;10.95;6.40;;;;;;;41.20;25.85;97497.16;4979609;28;20022;-75
2021/07/07 07:45:45;;;;;;;7.22;5.88;;;;;;;41.25;25.44;97494.34;4993984;28;20393;-77
2021/07/07 07:48:10;;;;;;;10.80;5.68;;;;;;;42.29;24.94;97501.25;4993549;28;20034;-77
2021/07/07 07:50:36;;;;;;;11.75;6.63;;;;;;;41.74;25.43;97506.31;4977571;28;20029;-76
2021/07/07 07:53:01;;;;;;;12.10;6.20;;;;;;;41.95;24.77;97502.19;4993416;28;20521;-75
2021/07/07 07:55:27;;;;;;;8.57;5.55;;;;;;;42.02;25.13;97502.66;4993940;28;20029;-75
2021/07/07 07:57:53;;;;;;;18.48;6.60;;;;;;;42.04;25.75;97500.38;4977323;28;20021;-75
2021/07/07 08:00:21;;;;;;;7.20;5.65;;;;;;;40.59;26.12;97512.41;4993582;28;20022;-77
2021/07/07 08:02:46;;;;;;;10.90;5.80;;;;;;;41.13;24.95;97505.09;4977309;28;20037;-75
2021/07/07 08:05:13;;;;;;;12.15;5.93;;;;;;;41.44;24.90;97509.41;4993521;28;20030;-76
2021/07/07 08:07:40;;;;;;;9.40;5.72;;;;;;;40.56;26.43;97507.38;4993677;28;20018;-75
2021/07/07 08:10:07;;;;;;;6.18;5.35;;;;;;;41.35;25.81;97513.97;4993357;28;20544;-75
2021/07/07 08:12:33;;;;;;;12.98;6.25;;;;;;;41.31;25.82;97510.03;5010971;28;20033;-75
2021/07/07 08:14:59;;;;;;;9.45;5.88;;;;;;;41.66;24.85;97509.72;4976627;28;20053;-76
2021/07/07 08:17:24;;;;;;;13.27;5.25;;;;;;;42.31;24.86;97510.22;4976832;28;20382;-76
2021/07/07 08:19:50;;;;;;;16.70;5.95;;;;;;;43.00;23.61;97506.84;4977020;28;20101;-77
2021/07/07 08:22:16;;;;;;;30.52;6.85;;;;;;;41.77;24.52;97502.94;4977066;28;20040;-74
2021/07/07 08:24:43;;;;;;;17.45;6.18;;;;;;;41.31;25.78;97510.03;4977102;28;20497;-76
2021/07/07 08:27:09;;;;;;;11.48;5.55;;;;;;;41.70;24.77;97510.00;4993360;28;20133;-77
2021/07/07 08:29:36;;;;;;;16.55;5.75;;;;;;;42.44;24.22;97510.34;4993370;28;20076;-74
2021/07/07 08:32:03;;;;;;;8.48;5.55;;;;;;;43.25;23.48;97508.44;4993391;28;20065;-76
2021/07/07 08:34:29;;;;;;;17.90;6.75;;;;;;;43.85;23.03;97503.78;4993431;28;20045;-74
2021/07/07 08:36:54;;;;;;;19.92;8.50;;;;;;;44.17;23.15;97503.78;4979020;28;20489;-76
2021/07/07 08:39:20;;;;;;;17.42;6.90;;;;;;;43.86;23.14;97511.09;4996625;28;20072;-74
2021/07/07 08:41:45;;;;;;;10.68;5.78;;;;;;;43.75;23.37;97509.59;4980439;28;20053;-74
2021/07/07 08:44:11;;;;;;;8.82;5.50;;;;;;;43.77;22.87;97511.00;4996731;28;20045;-75
2021/07/07 08:46:37;;;;;;;12.25;5.32;;;;;;;45.07;20.95;97506.66;4980417;28;20038;-75
2021/07/07 08:49:03;;;;;;;15.38;6.20;;;;;;;45.83;20.93;97510.50;4996504;28;20036;-76
2021/07/07 08:51:30;;;;;;;14.10;5.32;;;;;;;44.63;22.58;97515.00;4996277;28;20037;-75
2021/07/07 08:53:57;;;;;;;12.75;5.60;;;;;;;43.59;22.81;97506.22;4996650;28;20041;-75
2021/07/07 08:56:22;;;;;;;11.32;5.63;;;;;;;44.54;22.40;97509.25;4996304;28;20038;-75
2021/07/07 08:58:50;;;;;;;12.70;5.22;;;;;;;43.85;22.17;97500.97;4996641;28;20087;-75
2021/07/07 09:01:16;;;;;;;8.75;5.32;;;;;;;42.15;23.72;97504.75;4980272;28;20482;-75
2021/07/07 09:03:45;;;;;;;9.15;5.03;;;;;;;42.88;22.45;97510.09;4996502;28;20041;-75
2021/07/07 09:06:11;;;;;;;6.25;5.22;;;;;;;43.70;23.63;97518.97;4979926;28;20518;-75
2021/07/07 09:08:41;;;;;;;12.35;5.28;;;;;;;43.42;23.18;97506.75;4996297;28;20058;-75
2021/07/07 09:11:31;;;;;;;7.93;5.10;;;;;;;44.58;21.42;97512.28;4980000;28;20038;-76
2021/07/07 09:14:14;;;;;;;14.63;5.50;;;;;;;45.04;20.76;97512.13;4980585;28;20048;-75
2021/07/07 09:16:58;;;;;;;6.88;4.75;;;;;;;44.75;21.07;97518.09;4995905;28;20030;-75
2021/07/07 09:19:25;;;;;;;7.97;5.28;;;;;;;43.68;21.98;97507.19;4979864;28;20038;-75
2021/07/07 09:21:53;;;;;;;11.88;5.32;;;;;;;44.12;22.72;97506.66;4996349;28;20445;-75
2021/07/07 09:24:24;;;;;;;20.17;6.28;;;;;;;44.53;22.56;97501.88;4996316;28;20084;-75
2021/07/07 09:27:07;;;;;;;8.30;5.05;;;;;;;44.17;21.50;97509.41;4979818;28;20445;-75
2021/07/07 09:29:37;;;;;;;11.25;5.15;;;;;;;44.13;21.82;97509.16;4979575;28;20065;-75
2021/07/07 09:32:27;;;;;;;6.95;4.63;;;;;;;44.09;22.38;97510.94;4995797;28;20477;-75
2021/07/07 09:34:56;;;;;;;9.60;5.10;;;;;;;45.23;20.90;97519.28;4979896;28;20476;-75
2021/07/07 09:37:29;;;;;;;5.97;5.35;;;;;;;46.20;20.27;97512.88;4979043;28;20096;-75
2021/07/07 09:39:56;;;;;;;5.70;4.90;;;;;;;45.78;22.04;97508.63;4995703;28;20033;-75
2021/07/07 09:42:34;;;;;;;6.85;4.65;;;;;;;45.56;21.71;97508.63;4995438;28;20038;-75
2021/07/07 09:45:01;;;;;;;5.93;4.88;;;;;;;45.84;20.16;97514.16;4995667;28;20115;-75
2021/07/07 09:47:28;;;;;;;7.63;4.90;;;;;;;44.73;22.07;97500.66;4995309;28;20025;-75
2021/07/07 09:49:53;;;;;;;10.20;5.30;;;;;;;44.31;22.42;97503.75;4979508;28;20054;-75
2021/07/07 09:52:22;;;;;;;11.00;4.93;;;;;;;44.18;23.44;97511.91;4979656;28;20077;-75
2021/07/07 09:54:49;;;;;;;11.27;4.93;;;;;;;44.59;21.78;97495.00;4980421;28;20519;-75
2021/07/07 09:57:16;;;;;;;6.05;4.90;;;;;;;45.04;21.72;97518.59;4995492;28;20100;-76
2021/07/07 09:59:42;;;;;;;6.97;4.78;;;;;;;45.39;21.40;97507.63;4978980;28;20027;-76
2021/07/07 10:02:08;;;;;;;7.18;4.80;;;;;;;44.55;21.49;97499.59;4995198;28;20096;-76
2021/07/07 10:04:39;;;;;;;7.90;4.95;;;;;;;44.52;21.48;97493.72;4995125;28;20056;-75
2021/07/07 10:07:07;;;;;;;8.55;4.80;;;;;;;44.87;21.74;97501.47;4979116;28;20018;-76
2021/07/07 10:09:34;;;;;;;8.65;4.80;;;;;;;44.62;21.38;97513.31;4995370;28;20117;-75
2021/07/07 10:12:03;;;;;;;8.65;5.45;;;;;;;45.02;20.61;97498.31;4978939;28;20493;-75
2021/07/07 10:14:29;;;;;;;9.85;4.50;;;;;;;45.11;19.70;97490.75;4995170;28;22006;-75
2021/07/07 10:16:54;;;;;;;5.90;4.45;;;;;;;45.09;19.96;97493.06;4995131;28;20074;-76
2021/07/07 10:19:21;;;;;;;4.88;4.45;;;;;;;44.91;20.36;97496.84;4978512;28;20045;-75
2021/07/07 10:21:47;;;;;;;7.50;4.80;;;;;;;44.78;20.71;97491.22;4978811;28;20571;-75
2021/07/07 10:24:15;;;;;;;21.90;5.15;;;;;;;44.05;22.23;97487.34;4978364;28;20042;-75
2021/07/07 10:26:41;;;;;;;6.45;5.10;;;;;;;44.65;21.73;97495.72;4994992;28;20025;-75
2021/07/07 10:29:07;;;;;;;6.72;4.53;;;;;;;43.61;21.57;97487.84;4978663;28;20033;-75
2021/07/07 10:32:08;;;;;;;9.02;4.72;;;;;;;44.30;21.77;97493.66;4994376;28;20034;-75
2021/07/07 10:34:33;;;;;;;5.88;4.25;;;;;;;44.22;21.83;97487.56;4963548;28;20034;-75
2021/07/07 10:37:00;;;;;;;5.55;4.70;;;;;;;43.88;21.86;97487.09;4994620;28;20049;-75
2021/07/07 10:39:27;;;;;;;11.95;5.18;;;;;;;44.04;21.98;97485.66;4978307;28;20108;-76
2021/07/07 10:41:54;;;;;;;11.13;4.63;;;;;;;43.69;22.98;97481.47;4994347;28;20037;-75
2021/07/07 10:44:23;;;;;;;4.82;4.32;;;;;;;43.86;21.47;97480.94;4994264;28;20026;-76
2021/07/07 10:46:51;;;;;;;5.47;4.82;;;;;;;44.64;21.47;97486.41;4994614;28;20057;-75
2021/07/07 10:49:36;;;;;;;8.43;4.93;;;;;;;44.59;21.24;97482.88;4994540;28;20120;-75
2021/07/07 10:52:04;;;;;;;22.92;5.38;;;;;;;45.87;20.92;97486.06;4994565;28;20509;-76
2021/07/07 10:54:32;;;;;;;10.77;5.05;;;;;;;44.37;20.08;97477.94;4994072;28;20383;-76
2021/07/07 10:56:59;;;;;;;11.13;4.53;;;;;;;44.85;21.25;97492.47;4978023;28;20022;-76
2021/07/07 10:59:33;;;;;;;7.13;4.82;;;;;;;45.09;21.00;97487.41;4993652;28;20060;-76
2021/07/07 11:02:20;;;;;;;14.15;4.97;;;;;;;45.82;21.11;97494.66;5011816;28;20076;-76
2021/07/07 11:04:54;;;;;;;10.15;5.93;;;;;;;46.56;19.79;97492.06;4994118;28;20021;-75
2021/07/07 11:07:32;;;;;;;7.20;5.68;;;;;;;46.47;18.77;97483.53;4994287;28;20026;-75
2021/07/07 11:10:13;;;;;;;49.58;6.07;;;;;;;45.97;20.26;97480.09;4994092;28;20037;-75
2021/07/07 11:12:39;;;;;;;5.53;4.82;;;;;;;46.27;19.51;97478.44;4993856;28;20091;-75
2021/07/07 11:15:13;;;;;;;12.50;4.95;;;;;;;46.03;19.86;97492.94;5011469;28;20049;-75
2021/07/07 11:17:46;;;;;;;11.65;5.35;;;;;;;44.20;21.29;97478.59;4977614;28;20033;-76
2021/07/07 11:20:12;;;;;;;11.93;5.40;;;;;;;42.31;22.97;97479.28;4994012;28;20033;-75
2021/07/07 11:22:40;;;;;;;24.75;5.60;;;;;;;41.67;23.93;97474.03;4993689;28;20419;-75
2021/07/07 11:25:08;;;;;;;44.20;6.03;;;;;;;42.36;23.25;97471.66;4993824;28;20037;-76
2021/07/07 11:27:35;;;;;;;9.35;5.45;;;;;;;43.61;22.32;97470.91;4977393;28;20033;-76